Time;durP1;ratioP1;P1;durP2;ratioP2;P2;SDS_P1;SDS_P2;PMS_P1;PMS_P2;Temp;Humidity;BMP_temperature;BMP_pressure;BME280_temperature;BME280_humidity;BME280_pressure;Samples;Min_cycle;Max_cycle;Signal;HPM_P1;HPM_P2
2022/11/10 00:00:33;;;;;;;4.60;2.23;;;12.30;99.90;;;;;;5073256;28;20427;-38
2022/11/10 00:03:04;;;;;;;5.53;2.10;;;12.30;99.90;;;;;;5079844;28;20455;-39
2022/11/10 00:05:30;;;;;;;5.17;2.30;;;12.40;99.90;;;;;;5069575;28;20430;-38
2022/11/10 00:07:56;;;;;;;8.10;2.63;;;12.30;99.90;;;;;;5080200;28;20426;-39
2022/11/10 00:10:22;;;;;;;13.47;3.50;;;12.30;99.90;;;;;;5084908;28;20484;-38
2022/11/10 00:12:48;;;;;;;7.37;2.50;;;12.30;99.90;;;;;;5069753;28;20415;-39
2022/11/10 00:18:04;;;;;;;5.53;2.03;;;12.30;99.90;;;;;;5078032;28;20208;-38
2022/11/10 00:20:30;;;;;;;5.70;2.53;;;12.20;99.90;;;;;;5088914;28;20476;-39
2022/11/10 00:22:56;;;;;;;5.53;2.23;;;12.20;99.90;;;;;;5088794;28;20831;-39
2022/11/10 00:25:22;;;;;;;3.33;2.03;;;12.20;99.90;;;;;;5072879;28;20495;-38
2022/11/10 00:27:48;;;;;;;5.60;2.20;;;12.20;99.90;;;;;;5068960;28;20416;-38
2022/11/10 00:30:14;;;;;;;4.00;2.20;;;12.20;99.90;;;;;;5068556;28;21021;-39
2022/11/10 00:32:39;;;;;;;4.70;2.00;;;12.20;99.90;;;;;;5067567;28;20280;-38
2022/11/10 00:35:06;;;;;;;8.70;2.80;;;12.10;99.90;;;;;;5067398;28;20219;-38
2022/11/10 00:37:32;;;;;;;5.47;2.77;;;12.20;99.90;;;;;;5068840;28;20583;-38
2022/11/10 00:39:58;;;;;;;6.70;2.30;;;12.20;99.90;;;;;;5075143;28;20436;-38
2022/11/10 00:42:24;;;;;;;10.93;2.93;;;12.20;99.90;;;;;;5077042;28;20529;-39
2022/11/10 00:44:49;;;;;;;5.43;2.23;;;12.20;99.90;;;;;;5086768;28;20216;-38
2022/11/10 00:47:15;;;;;;;3.63;2.10;;;12.20;99.90;;;;;;5068736;28;20690;-39
2022/11/10 00:49:41;;;;;;;8.07;3.43;;;12.10;99.90;;;;;;5068306;28;20185;-38
2022/11/10 00:52:06;;;;;;;4.93;2.20;;;12.10;99.90;;;;;;5068288;28;20200;-38
2022/11/10 00:54:32;;;;;;;6.60;2.77;;;12.10;99.90;;;;;;5068147;28;20201;-39
2022/11/10 00:56:57;;;;;;;5.83;2.33;;;12.10;99.90;;;;;;5068760;28;20253;-38
2022/11/10 00:59:23;;;;;;;7.30;2.33;;;12.00;99.90;;;;;;5067963;28;20212;-38
2022/11/10 01:01:49;;;;;;;5.43;2.10;;;12.00;99.90;;;;;;5068369;28;20258;-39
2022/11/10 01:04:14;;;;;;;7.73;2.30;;;12.00;99.90;;;;;;5068161;28;20681;-39
2022/11/10 01:06:40;;;;;;;4.77;2.40;;;12.00;99.90;;;;;;5068271;28;20242;-38
2022/11/10 01:09:06;;;;;;;4.03;2.63;;;12.00;99.90;;;;;;5066474;28;20265;-39
2022/11/10 01:11:31;;;;;;;5.20;1.90;;;12.00;99.90;;;;;;5068326;28;20185;-39
2022/11/10 01:13:57;;;;;;;6.13;2.40;;;11.90;99.90;;;;;;5068217;28;20208;-39
2022/11/10 01:16:26;;;;;;;8.73;2.47;;;11.90;99.90;;;;;;5067032;28;20203;-38
2022/11/10 01:18:54;;;;;;;5.50;2.00;;;12.00;99.90;;;;;;5067835;28;20357;-39
2022/11/10 01:21:21;;;;;;;7.77;2.50;;;12.00;99.90;;;;;;5068191;28;20540;-39
2022/11/10 01:23:47;;;;;;;7.80;3.17;;;11.90;99.90;;;;;;5079681;28;21091;-38
2022/11/10 01:26:14;;;;;;;8.17;2.30;;;11.90;99.90;;;;;;5068165;28;20675;-39
2022/11/10 01:28:40;;;;;;;6.23;2.30;;;11.80;99.90;;;;;;5069676;28;20428;-38
2022/11/10 01:31:12;;;;;;;4.87;2.47;;;11.70;99.90;;;;;;5074835;28;20423;-38
2022/11/10 01:33:38;;;;;;;5.23;2.13;;;11.70;99.90;;;;;;5073219;28;20180;-38
2022/11/10 01:36:05;;;;;;;10.10;2.13;;;11.70;99.90;;;;;;5074634;28;20430;-39
2022/11/10 01:38:33;;;;;;;5.93;2.20;;;11.80;99.90;;;;;;5074330;28;20435;-39
2022/11/10 01:41:00;;;;;;;4.73;2.13;;;11.80;99.90;;;;;;5074779;28;20434;-39
2022/11/10 01:43:27;;;;;;;3.07;1.90;;;11.90;99.90;;;;;;5091418;28;20458;-39
2022/11/10 01:45:59;;;;;;;5.57;2.57;;;11.90;99.90;;;;;;5084546;28;20419;-38
2022/11/10 01:48:34;;;;;;;4.60;2.67;;;11.90;99.90;;;;;;5074128;28;20446;-39
2022/11/10 01:51:05;;;;;;;4.50;1.77;;;11.80;99.90;;;;;;5074653;28;20795;-39
2022/11/10 01:53:33;;;;;;;4.47;1.93;;;11.80;99.90;;;;;;5072894;28;20531;-38
2022/11/10 01:56:01;;;;;;;4.73;2.63;;;11.80;99.90;;;;;;5074711;28;20907;-38
2022/11/10 01:58:33;;;;;;;11.50;3.13;;;11.80;99.90;;;;;;5081123;28;20434;-39
2022/11/10 02:00:58;;;;;;;5.27;2.33;;;11.80;99.90;;;;;;5094537;28;20475;-38
2022/11/10 02:03:48;;;;;;;7.97;2.07;;;11.80;99.90;;;;;;5094240;28;20473;-39
2022/11/10 02:06:16;;;;;;;7.00;2.07;;;11.80;99.90;;;;;;5094578;28;20204;-38
2022/11/10 02:08:43;;;;;;;5.47;1.83;;;11.80;99.90;;;;;;5094474;28;20784;-38
2022/11/10 02:11:09;;;;;;;6.27;2.10;;;11.80;99.90;;;;;;5094571;28;20487;-38
2022/11/10 02:13:35;;;;;;;10.40;2.53;;;11.80;99.90;;;;;;5094144;28;20427;-38
2022/11/10 02:16:01;;;;;;;7.50;1.93;;;11.80;99.90;;;;;;5094712;28;20414;-38
2022/11/10 02:18:26;;;;;;;4.27;2.20;;;11.70;99.90;;;;;;5093021;28;20529;-39
2022/11/10 02:20:52;;;;;;;6.07;2.10;;;11.70;99.90;;;;;;5094518;28;20199;-38
2022/11/10 02:23:33;;;;;;;8.43;2.43;;;11.70;99.90;;;;;;5092702;28;20682;-39
2022/11/10 02:25:59;;;;;;;7.53;2.10;;;11.70;99.90;;;;;;5074946;28;20422;-38
2022/11/10 02:28:26;;;;;;;5.07;1.77;;;11.70;99.90;;;;;;5073704;28;20504;-39
2022/11/10 02:30:52;;;;;;;7.00;2.20;;;11.80;99.90;;;;;;5075375;28;20423;-38
2022/11/10 02:33:18;;;;;;;9.70;2.20;;;11.80;99.90;;;;;;5073109;28;20427;-38
2022/11/10 02:35:47;;;;;;;5.70;2.30;;;11.80;99.90;;;;;;5074521;28;20454;-38
2022/11/10 02:38:13;;;;;;;8.37;1.90;;;11.80;99.90;;;;;;5073957;28;20447;-38
2022/11/10 02:40:39;;;;;;;5.87;2.60;;;11.80;99.90;;;;;;5070904;28;20458;-39
2022/11/10 02:43:08;;;;;;;15.40;2.30;;;11.80;99.90;;;;;;5070470;28;20459;-38
2022/11/10 02:45:33;;;;;;;6.83;3.13;;;11.80;99.90;;;;;;5080960;28;20476;-39
2022/11/10 02:47:59;;;;;;;7.30;2.50;;;11.90;99.90;;;;;;5091142;28;20980;-38
2022/11/10 02:50:25;;;;;;;6.93;2.00;;;11.90;99.90;;;;;;5090936;28;20199;-38
2022/11/10 02:52:50;;;;;;;11.30;3.37;;;11.80;99.90;;;;;;5090711;28;20625;-38
2022/11/10 02:55:16;;;;;;;9.70;3.03;;;11.80;99.90;;;;;;5091003;28;20266;-38
2022/11/10 02:57:42;;;;;;;6.47;2.07;;;11.80;99.90;;;;;;5091263;28;20438;-38
2022/11/10 03:00:08;;;;;;;7.30;2.23;;;11.80;99.90;;;;;;5090825;28;20188;-39
2022/11/10 03:02:34;;;;;;;6.97;2.17;;;11.90;99.90;;;;;;5090991;28;20181;-38
2022/11/10 03:04:59;;;;;;;4.47;1.93;;;11.80;99.90;;;;;;5090769;28;20438;-38
2022/11/10 03:07:25;;;;;;;8.77;2.57;;;11.80;99.90;;;;;;5090980;28;20188;-39
2022/11/10 03:09:51;;;;;;;3.00;1.67;;;11.70;99.90;;;;;;5090040;28;20671;-39
2022/11/10 03:12:17;;;;;;;9.60;3.13;;;11.80;99.90;;;;;;5090621;28;20662;-38
2022/11/10 03:14:43;;;;;;;7.17;2.00;;;11.70;99.90;;;;;;5090525;28;20434;-39
2022/11/10 03:17:08;;;;;;;7.27;2.30;;;11.70;99.90;;;;;;5090765;28;20414;-39
2022/11/10 03:19:34;;;;;;;3.23;1.53;;;11.70;99.90;;;;;;5090551;28;20198;-39
2022/11/10 03:22:00;;;;;;;5.50;1.97;;;11.70;99.90;;;;;;5090640;28;20180;-38
2022/11/10 03:24:26;;;;;;;5.00;2.07;;;11.70;99.90;;;;;;5089908;28;20219;-38
2022/11/10 03:26:51;;;;;;;7.30;2.40;;;11.80;99.90;;;;;;5090387;28;20889;-39
2022/11/10 03:29:17;;;;;;;5.83;2.13;;;11.80;99.90;;;;;;5090216;28;20671;-38
2022/11/10 03:31:43;;;;;;;8.67;2.70;;;11.70;99.90;;;;;;5090363;28;20253;-38
2022/11/10 03:34:08;;;;;;;5.63;2.03;;;11.70;99.90;;;;;;5089254;28;20180;-39
2022/11/10 03:36:34;;;;;;;4.83;1.70;;;11.60;99.90;;;;;;5090258;28;20645;-39
2022/11/10 03:39:00;;;;;;;10.90;2.60;;;11.70;99.90;;;;;;5089496;28;20208;-38
2022/11/10 03:41:25;;;;;;;10.67;2.47;;;11.60;99.90;;;;;;5089003;28;20203;-39
2022/11/10 03:43:51;;;;;;;8.37;2.87;;;11.60;99.90;;;;;;5089990;28;20217;-38
2022/11/10 03:46:17;;;;;;;8.27;2.53;;;11.70;99.90;;;;;;5090122;28;20553;-39
2022/11/10 03:48:43;;;;;;;9.63;2.60;;;11.70;99.90;;;;;;5089820;28;20305;-38
2022/11/10 03:51:08;;;;;;;5.87;2.27;;;11.70;99.90;;;;;;5089910;28;20216;-38
2022/11/10 03:53:34;;;;;;;6.43;2.67;;;11.70;99.90;;;;;;5089193;28;20199;-38
2022/11/10 03:56:04;;;;;;;6.60;2.00;;;11.70;99.90;;;;;;5089588;28;20188;-38
2022/11/10 03:58:30;;;;;;;7.93;1.90;;;11.70;99.90;;;;;;5089749;28;20191;-39
2022/11/10 04:00:57;;;;;;;8.70;2.70;;;11.60;99.90;;;;;;5089977;28;20421;-39
2022/11/10 04:03:23;;;;;;;6.23;1.93;;;11.70;99.90;;;;;;5089385;28;20798;-39
2022/11/10 04:16:47;;;;;;;11.30;2.60;;;11.60;99.90;;;;;;5089642;28;20476;-39
2022/11/10 04:19:12;;;;;;;6.13;2.17;;;11.60;99.90;;;;;;5089209;28;20422;-39
2022/11/10 04:21:38;;;;;;;7.63;2.20;;;11.60;99.90;;;;;;5089685;28;20197;-39
2022/11/10 04:24:05;;;;;;;5.50;1.83;;;11.60;99.90;;;;;;5088723;28;20678;-38
2022/11/10 04:26:32;;;;;;;13.13;2.40;;;11.60;99.90;;;;;;5089417;28;20678;-38
2022/11/10 04:29:02;;;;;;;6.83;1.90;;;11.60;99.90;;;;;;5088608;28;20419;-38
2022/11/10 04:31:30;;;;;;;7.13;2.30;;;11.50;99.90;;;;;;5089597;28;20414;-39
2022/11/10 04:33:56;;;;;;;6.17;1.90;;;11.50;99.90;;;;;;5087922;28;20410;-38
2022/11/10 04:36:27;;;;;;;6.93;2.50;;;11.50;99.90;;;;;;5089286;28;20499;-38
2022/11/10 04:38:56;;;;;;;8.87;2.50;;;11.50;99.90;;;;;;5088843;28;20420;-38
2022/11/10 04:41:23;;;;;;;7.40;2.50;;;11.50;99.90;;;;;;5088811;28;20796;-39
2022/11/10 04:43:49;;;;;;;8.67;1.87;;;11.50;99.90;;;;;;5088911;28;20497;-38
2022/11/10 04:46:22;;;;;;;6.80;2.80;;;11.50;99.90;;;;;;5088772;28;20441;-38
2022/11/10 04:48:48;;;;;;;9.20;2.77;;;11.50;99.90;;;;;;5088730;28;20423;-39
2022/11/10 04:51:15;;;;;;;7.50;2.13;;;11.40;99.90;;;;;;5088787;28;20819;-38
2022/11/10 04:53:41;;;;;;;9.43;2.13;;;11.50;99.90;;;;;;5088719;28;20711;-38
2022/11/10 04:56:09;;;;;;;9.70;2.73;;;11.50;99.90;;;;;;5088860;28;20475;-39
2022/11/10 04:58:35;;;;;;;7.47;2.83;;;11.50;99.90;;;;;;5087130;28;20658;-39
2022/11/10 05:01:00;;;;;;;4.40;2.10;;;11.40;99.90;;;;;;5088890;28;20760;-38
2022/11/10 05:03:26;;;;;;;7.97;2.17;;;11.40;99.90;;;;;;5087646;28;20211;-38
2022/11/10 05:05:52;;;;;;;6.23;2.63;;;11.40;99.90;;;;;;5088740;28;20220;-38
2022/11/10 05:08:17;;;;;;;6.43;2.10;;;11.40;99.90;;;;;;5088562;28;20264;-38
2022/11/10 05:10:43;;;;;;;3.60;2.40;;;11.40;99.90;;;;;;5088107;28;20180;-38
2022/11/10 05:13:10;;;;;;;6.20;2.37;;;11.30;99.90;;;;;;5088285;28;20188;-39
2022/11/10 05:15:38;;;;;;;9.60;4.13;;;11.30;99.90;;;;;;5088773;28;20180;-39
2022/11/10 05:18:04;;;;;;;8.07;2.50;;;11.30;99.90;;;;;;5088513;28;20509;-38
2022/11/10 05:20:30;;;;;;;6.47;2.40;;;11.30;99.90;;;;;;5087016;28;20552;-38
2022/11/10 05:25:41;;;;;;;6.80;2.60;;;11.30;99.90;;;;;;5088876;28;20635;-39
2022/11/10 05:28:09;;;;;;;10.30;2.10;;;11.30;99.90;;;;;;5088237;28;20421;-38
2022/11/10 05:30:35;;;;;;;9.30;3.63;;;11.20;99.90;;;;;;5088575;28;20532;-38
2022/11/10 05:33:01;;;;;;;5.00;2.80;;;11.20;99.90;;;;;;5087290;28;20532;-38
2022/11/10 05:35:27;;;;;;;10.60;2.90;;;11.20;99.90;;;;;;5088625;28;20205;-39
2022/11/10 05:37:53;;;;;;;4.70;2.30;;;11.20;99.90;;;;;;5088154;28;20422;-38
2022/11/10 05:40:18;;;;;;;4.73;2.07;;;11.20;99.90;;;;;;5087137;28;20905;-39
2022/11/10 05:42:46;;;;;;;8.40;2.80;;;11.20;99.90;;;;;;5080937;28;20200;-39
2022/11/10 05:45:12;;;;;;;9.77;4.00;;;11.20;99.90;;;;;;5088186;28;20187;-38
2022/11/10 05:47:38;;;;;;;6.30;3.00;;;11.20;99.90;;;;;;5087783;28;20418;-38
2022/11/10 05:50:05;;;;;;;12.67;3.30;;;11.20;99.90;;;;;;5087517;28;20430;-38
2022/11/10 05:52:31;;;;;;;11.47;3.30;;;11.20;99.90;;;;;;5087568;28;20410;-38
2022/11/10 05:54:56;;;;;;;6.93;2.50;;;11.20;99.90;;;;;;5087973;28;20426;-38
2022/11/10 05:57:22;;;;;;;10.10;2.70;;;11.20;99.90;;;;;;5088213;28;20247;-39
2022/11/10 05:59:48;;;;;;;6.53;2.97;;;11.20;99.90;;;;;;5086669;28;20216;-38
2022/11/10 06:02:13;;;;;;;15.80;3.60;;;11.20;99.90;;;;;;5088108;28;20257;-39
2022/11/10 06:04:39;;;;;;;4.93;2.83;;;11.20;99.90;;;;;;5087539;28;20845;-38
2022/11/10 06:07:06;;;;;;;9.17;2.53;;;11.20;99.90;;;;;;5088319;28;20545;-38
2022/11/10 06:09:33;;;;;;;5.50;2.90;;;11.20;99.90;;;;;;5087935;28;20723;-39
2022/11/10 06:12:00;;;;;;;10.33;2.60;;;11.30;99.90;;;;;;5087900;28;20431;-38
2022/11/10 06:14:25;;;;;;;9.30;2.67;;;11.30;99.90;;;;;;5088045;28;20483;-38
2022/11/10 06:16:51;;;;;;;10.90;3.17;;;11.30;99.90;;;;;;5091882;28;20419;-38
2022/11/10 06:19:17;;;;;;;7.00;2.37;;;11.30;99.90;;;;;;5091242;28;20188;-39
2022/11/10 06:21:42;;;;;;;6.77;2.70;;;11.30;99.90;;;;;;5091598;28;20185;-38
2022/11/10 06:24:10;;;;;;;7.40;3.03;;;11.30;99.90;;;;;;5091291;28;20239;-38
2022/11/10 06:26:35;;;;;;;5.10;2.27;;;11.20;99.90;;;;;;5091683;28;20534;-39
2022/11/10 06:29:01;;;;;;;7.60;2.57;;;11.20;99.90;;;;;;5089489;28;20438;-39
2022/11/10 06:31:27;;;;;;;10.27;3.73;;;11.30;99.90;;;;;;5090092;28;20180;-38
2022/11/10 06:33:53;;;;;;;12.10;2.80;;;11.20;99.90;;;;;;5090054;28;20418;-40
2022/11/10 06:36:18;;;;;;;5.67;2.27;;;11.20;99.90;;;;;;5091409;28;20188;-38
2022/11/10 06:38:44;;;;;;;6.30;2.60;;;11.30;99.90;;;;;;5089768;28;20691;-38
2022/11/10 06:41:10;;;;;;;9.47;2.53;;;11.20;99.90;;;;;;5088194;28;20245;-39
2022/11/10 06:43:35;;;;;;;6.63;3.40;;;11.20;99.90;;;;;;5090884;28;20706;-39
2022/11/10 06:46:01;;;;;;;7.87;3.33;;;11.20;99.90;;;;;;5091721;28;20204;-39
2022/11/10 06:48:26;;;;;;;7.57;2.83;;;11.20;99.90;;;;;;5090646;28;20263;-39
2022/11/10 06:50:52;;;;;;;7.27;2.80;;;11.20;99.90;;;;;;5091500;28;20718;-38
2022/11/10 06:53:18;;;;;;;8.57;2.43;;;11.20;99.90;;;;;;5090613;28;20255;-39
2022/11/10 06:55:43;;;;;;;11.60;3.10;;;11.20;99.90;;;;;;5091649;28;20317;-39
2022/11/10 06:58:09;;;;;;;8.30;2.93;;;11.20;99.90;;;;;;5090918;28;20191;-39
2022/11/10 07:00:35;;;;;;;10.80;3.20;;;11.20;99.90;;;;;;5089514;28;20325;-38
2022/11/10 07:03:03;;;;;;;8.77;2.40;;;11.30;99.90;;;;;;5090329;28;20191;-38
2022/11/10 07:05:31;;;;;;;6.17;3.73;;;11.20;99.90;;;;;;5090959;28;20201;-40
2022/11/10 07:08:05;;;;;;;7.57;2.97;;;11.20;99.90;;;;;;5091067;28;20567;-39
2022/11/10 07:10:32;;;;;;;4.80;2.90;;;11.20;99.90;;;;;;5088081;28;20422;-39
2022/11/10 07:12:59;;;;;;;7.97;2.53;;;11.20;99.90;;;;;;5092851;28;20760;-38
2022/11/10 07:15:25;;;;;;;11.77;2.73;;;11.20;99.90;;;;;;5090752;28;20437;-39
2022/11/10 07:17:50;;;;;;;7.90;2.67;;;11.30;99.90;;;;;;5090511;28;20410;-39
2022/11/10 07:20:16;;;;;;;9.40;3.10;;;11.30;99.90;;;;;;5086605;28;20197;-39
2022/11/10 07:22:42;;;;;;;6.63;2.80;;;11.30;99.90;;;;;;5090762;28;20237;-38
2022/11/10 07:25:08;;;;;;;8.90;2.83;;;11.30;99.90;;;;;;5093349;28;20211;-38
2022/11/10 07:27:33;;;;;;;8.97;3.63;;;11.40;99.90;;;;;;5097626;28;20698;-38
2022/11/10 07:29:59;;;;;;;6.97;2.30;;;11.50;99.90;;;;;;5099874;28;20418;-38
2022/11/10 07:32:25;;;;;;;8.77;3.43;;;11.40;99.90;;;;;;5099276;28;20180;-38
2022/11/10 07:34:50;;;;;;;7.97;4.10;;;11.50;99.90;;;;;;5102740;28;20183;-39
2022/11/10 07:37:16;;;;;;;4.23;2.27;;;11.50;99.90;;;;;;5108563;28;20175;-39
2022/11/10 07:39:42;;;;;;;7.20;2.70;;;11.50;99.90;;;;;;5110552;28;20210;-38
2022/11/10 07:42:07;;;;;;;5.47;3.00;;;11.50;99.90;;;;;;5110546;28;20180;-38
2022/11/10 07:44:33;;;;;;;6.70;2.80;;;11.60;99.90;;;;;;5107865;28;20245;-38
2022/11/10 07:46:59;;;;;;;7.83;3.83;;;11.60;99.90;;;;;;5090094;28;20642;-39
2022/11/10 07:49:24;;;;;;;6.83;3.00;;;11.60;99.90;;;;;;5089700;28;20253;-39
2022/11/10 07:51:50;;;;;;;5.00;2.50;;;11.70;99.90;;;;;;5089890;28;20263;-38
2022/11/10 07:54:16;;;;;;;7.33;2.47;;;11.70;99.90;;;;;;5100401;28;20494;-38
2022/11/10 07:56:42;;;;;;;13.77;3.00;;;11.80;99.90;;;;;;5094209;27;20205;-38
2022/11/10 07:59:08;;;;;;;10.03;3.47;;;11.90;99.90;;;;;;5077455;28;20202;-38
2022/11/10 08:01:34;;;;;;;6.93;2.80;;;11.90;99.90;;;;;;5089169;28;20461;-39
2022/11/10 08:03:59;;;;;;;10.73;3.00;;;11.90;99.90;;;;;;5089267;28;20211;-39
2022/11/10 08:06:25;;;;;;;7.80;3.03;;;12.00;99.90;;;;;;5093622;28;20196;-39
2022/11/10 08:08:50;;;;;;;8.50;2.57;;;12.20;99.90;;;;;;5097784;28;20188;-38
2022/11/10 08:11:16;;;;;;;7.63;2.57;;;12.40;99.90;;;;;;5106775;28;20187;-38
2022/11/10 08:13:42;;;;;;;4.23;2.37;;;12.70;99.90;;;;;;5109308;28;20241;-38
2022/11/10 08:16:08;;;;;;;9.00;2.90;;;12.90;99.90;;;;;;5090607;28;20425;-39
2022/11/10 08:18:34;;;;;;;9.60;2.77;;;13.10;99.90;;;;;;5105114;28;20206;-39
2022/11/10 08:21:00;;;;;;;10.80;3.43;;;13.30;99.90;;;;;;5103726;28;20425;-39
2022/11/10 08:23:27;;;;;;;10.87;2.93;;;13.50;99.90;;;;;;5093756;28;20288;-38
2022/11/10 08:25:56;;;;;;;7.17;3.53;;;13.70;99.90;;;;;;5088347;28;20529;-39
2022/11/10 08:28:22;;;;;;;8.00;2.63;;;13.90;99.90;;;;;;5071411;28;20415;-39
2022/11/10 08:30:48;;;;;;;7.63;3.00;;;14.10;99.90;;;;;;5089258;28;20431;-39
2022/11/10 08:33:17;;;;;;;15.57;2.90;;;14.20;99.90;;;;;;5093138;28;20203;-39
2022/11/10 08:35:44;;;;;;;9.80;3.67;;;14.30;99.90;;;;;;5105822;28;20449;-39
2022/11/10 08:38:18;;;;;;;10.47;3.47;;;14.40;99.90;;;;;;5088213;28;20415;-39
2022/11/10 08:40:45;;;;;;;5.63;2.60;;;14.60;99.90;;;;;;5088729;28;20418;-39
2022/11/10 08:43:11;;;;;;;11.17;3.30;;;14.70;99.90;;;;;;5099430;28;20469;-38
2022/11/10 08:45:40;;;;;;;5.03;2.63;;;14.90;99.90;;;;;;5068788;28;20419;-39
2022/11/10 08:48:10;;;;;;;8.93;2.70;;;15.00;99.90;;;;;;5067693;28;20520;-39
2022/11/10 08:50:36;;;;;;;7.30;3.00;;;15.00;99.90;;;;;;5068503;28;20416;-38
2022/11/10 08:53:05;;;;;;;10.90;2.60;;;15.00;99.90;;;;;;5067005;28;20468;-39
2022/11/10 08:55:31;;;;;;;8.30;2.60;;;15.10;99.90;;;;;;5068132;28;20427;-38
2022/11/10 08:58:01;;;;;;;8.50;2.30;;;15.20;99.90;;;;;;5068564;28;21122;-39
2022/11/10 09:00:28;;;;;;;10.30;3.07;;;15.30;99.90;;;;;;5066960;28;20180;-40
2022/11/10 09:02:55;;;;;;;6.13;2.53;;;15.40;99.90;;;;;;5066778;28;20427;-39
2022/11/10 09:05:21;;;;;;;6.90;2.50;;;15.50;99.90;;;;;;5068730;28;20910;-39
2022/11/10 09:07:48;;;;;;;5.13;1.90;;;15.60;99.90;;;;;;5068446;28;20783;-39
2022/11/10 09:10:14;;;;;;;7.40;2.40;;;15.70;99.90;;;;;;5067909;28;20411;-39
2022/11/10 09:12:41;;;;;;;4.40;2.40;;;15.80;99.90;;;;;;5066759;28;20934;-38
2022/11/10 09:15:09;;;;;;;7.97;2.87;;;15.90;99.90;;;;;;5068279;28;20424;-39
2022/11/10 09:17:35;;;;;;;7.47;2.30;;;16.10;99.90;;;;;;5068503;28;20423;-39
2022/11/10 09:20:01;;;;;;;6.63;2.97;;;16.20;99.90;;;;;;5068327;28;20419;-38
2022/11/10 09:22:28;;;;;;;7.53;2.53;;;16.30;99.90;;;;;;5071247;28;20423;-39
2022/11/10 09:24:53;;;;;;;7.97;2.60;;;16.40;99.90;;;;;;5088066;28;20595;-40
2022/11/10 09:27:19;;;;;;;9.37;2.80;;;16.40;99.90;;;;;;5088349;28;20509;-40
2022/11/10 09:29:44;;;;;;;10.93;2.30;;;16.60;99.90;;;;;;5088127;28;20176;-38
2022/11/10 09:32:10;;;;;;;7.13;2.33;;;16.70;99.90;;;;;;5088584;28;20188;-39
2022/11/10 09:34:36;;;;;;;12.73;2.80;;;16.70;99.90;;;;;;5086803;28;20188;-40
2022/11/10 09:37:01;;;;;;;7.33;2.77;;;16.70;99.90;;;;;;5088519;28;20186;-38
2022/11/10 09:39:27;;;;;;;9.40;2.80;;;16.80;99.90;;;;;;5087724;28;20283;-39
2022/11/10 09:41:53;;;;;;;8.50;2.67;;;16.80;99.90;;;;;;5088165;28;20188;-38
2022/11/10 09:44:24;;;;;;;11.13;2.97;;;16.80;99.90;;;;;;5088099;28;20547;-39
2022/11/10 09:46:58;;;;;;;9.80;2.70;;;16.80;99.90;;;;;;5088382;28;20263;-39
2022/11/10 09:49:43;;;;;;;12.17;2.70;;;16.80;99.90;;;;;;5087914;28;20418;-39
2022/11/10 09:52:12;;;;;;;9.93;2.30;;;16.90;99.90;;;;;;5092213;28;20410;-39
2022/11/10 09:55:17;;;;;;;11.37;2.53;;;16.90;99.90;;;;;;5092056;28;20418;-40
2022/11/10 09:57:45;;;;;;;10.17;3.00;;;16.80;99.90;;;;;;5092092;28;20436;-39
2022/11/10 10:00:16;;;;;;;5.90;2.60;;;16.90;99.90;;;;;;5091576;28;20430;-39
2022/11/10 10:02:49;;;;;;;6.17;2.30;;;16.90;99.90;;;;;;5091691;28;20795;-39
2022/11/10 10:05:36;;;;;;;7.23;2.63;;;16.90;99.90;;;;;;5092166;28;20445;-39
2022/11/10 10:08:07;;;;;;;6.20;2.80;;;17.00;99.90;;;;;;5092053;28;20410;-38
2022/11/10 10:10:50;;;;;;;12.47;2.60;;;17.00;99.90;;;;;;5091598;28;20410;-39
2022/11/10 10:13:53;;;;;;;7.03;3.00;;;17.00;99.90;;;;;;5091550;28;20505;-39
2022/11/10 10:16:37;;;;;;;11.90;2.17;;;16.90;99.90;;;;;;5092031;28;20402;-39
2022/11/10 10:19:19;;;;;;;4.40;2.20;;;16.80;99.90;;;;;;5090993;28;20786;-39
2022/11/10 10:21:52;;;;;;;10.90;3.07;;;16.70;99.90;;;;;;5092112;28;20418;-39
2022/11/10 10:24:20;;;;;;;5.17;2.43;;;16.60;99.90;;;;;;5091003;28;20462;-39
2022/11/10 10:26:52;;;;;;;4.67;1.80;;;16.60;99.90;;;;;;5091830;28;20422;-39
2022/11/10 10:29:44;;;;;;;8.90;1.87;;;16.50;99.90;;;;;;5089826;28;20421;-39
2022/11/10 10:32:12;;;;;;;9.27;2.27;;;16.40;99.90;;;;;;5091758;28;20429;-39
2022/11/10 10:34:40;;;;;;;7.53;3.07;;;16.30;99.90;;;;;;5090554;28;20426;-39
2022/11/10 10:37:25;;;;;;;9.17;2.23;;;16.20;99.90;;;;;;5091500;28;20421;-39
2022/11/10 10:39:56;;;;;;;10.43;2.80;;;16.10;99.90;;;;;;5089752;28;20422;-39
2022/11/10 10:42:32;;;;;;;9.60;2.30;;;16.00;99.90;;;;;;5091349;28;20449;-39
2022/11/10 10:45:21;;;;;;;6.80;2.20;;;16.00;99.90;;;;;;5091244;28;20492;-39
2022/11/10 10:47:50;;;;;;;6.80;2.60;;;15.90;99.90;;;;;;5091314;28;20414;-39
2022/11/10 10:50:24;;;;;;;10.77;2.47;;;15.90;99.90;;;;;;5090661;28;20406;-39
2022/11/10 10:53:22;;;;;;;9.80;2.57;;;15.90;99.90;;;;;;5090879;28;20913;-39
2022/11/10 10:56:03;;;;;;;7.80;2.20;;;15.80;99.90;;;;;;5091328;28;20447;-39
2022/11/10 10:58:32;;;;;;;9.30;2.73;;;15.70;99.90;;;;;;5089041;28;20422;-39
2022/11/10 15:07:51;;;;;;;4.17;1.10;;;14.70;99.90;;;;;;5126801;27;20542;-35
2022/11/10 15:10:26;;;;;;;2.63;0.93;;;14.70;99.90;;;;;;5126297;28;20454;-35
2022/11/10 15:12:59;;;;;;;4.23;1.73;;;14.70;99.90;;;;;;5125219;28;20487;-35
2022/11/10 15:15:25;;;;;;;5.63;1.50;;;14.70;99.90;;;;;;5126749;28;20417;-35
2022/11/10 15:17:51;;;;;;;8.37;1.77;;;14.70;99.90;;;;;;5126634;27;20400;-36
2022/11/10 15:20:32;;;;;;;4.70;1.27;;;14.70;99.90;;;;;;5124914;28;20824;-35
2022/11/10 15:22:59;;;;;;;4.03;1.37;;;14.70;99.90;;;;;;5133674;27;20932;-36
2022/11/10 15:25:35;;;;;;;4.70;1.23;;;14.70;99.90;;;;;;5146652;27;20441;-35
2022/11/10 15:28:06;;;;;;;2.83;1.20;;;14.70;99.90;;;;;;5147126;27;20550;-36
2022/11/10 15:30:31;;;;;;;2.63;1.23;;;14.70;99.90;;;;;;5122018;27;20467;-36
2022/11/10 15:32:57;;;;;;;2.30;1.50;;;14.70;99.90;;;;;;5112996;27;20433;-35
2022/11/10 15:35:23;;;;;;;10.00;1.80;;;14.70;99.90;;;;;;5118286;28;20208;-35
2022/11/10 15:38:00;;;;;;;5.47;1.50;;;14.70;99.90;;;;;;5125157;27;20642;-35
2022/11/10 15:40:47;;;;;;;3.20;1.13;;;14.70;99.90;;;;;;5125414;28;20199;-35
2022/11/10 15:43:14;;;;;;;2.20;1.33;;;14.60;99.90;;;;;;5125627;28;20485;-35
2022/11/10 15:45:42;;;;;;;5.53;1.10;;;14.50;99.90;;;;;;5124729;28;20460;-35
2022/11/10 15:48:18;;;;;;;2.67;1.20;;;14.60;99.90;;;;;;5116073;28;20483;-35
2022/11/10 15:50:47;;;;;;;4.70;1.40;;;14.60;99.90;;;;;;5125392;28;20523;-35
2022/11/10 15:53:20;;;;;;;3.57;1.60;;;14.60;99.90;;;;;;5125796;27;20532;-35
2022/11/10 15:55:46;;;;;;;5.87;1.80;;;14.60;99.90;;;;;;5126246;28;20806;-36
2022/11/10 15:58:22;;;;;;;3.30;1.40;;;14.60;99.90;;;;;;5125538;28;20420;-34
2022/11/10 16:00:48;;;;;;;4.20;1.80;;;14.60;99.90;;;;;;5125660;28;20205;-35
2022/11/10 16:03:17;;;;;;;4.83;2.00;;;14.60;99.90;;;;;;5121267;28;20908;-35
2022/11/10 16:05:44;;;;;;;2.90;1.20;;;14.50;99.90;;;;;;5125479;27;20464;-35
2022/11/10 16:08:18;;;;;;;8.60;1.60;;;14.50;99.90;;;;;;5123977;28;20515;-35
2022/11/10 16:10:48;;;;;;;6.67;1.93;;;14.50;99.90;;;;;;5125135;28;20428;-35
2022/11/10 16:13:30;;;;;;;3.73;1.67;;;14.40;99.90;;;;;;5124575;28;20424;-35
2022/11/10 16:15:56;;;;;;;4.57;1.60;;;14.40;99.90;;;;;;5125413;28;20511;-35
2022/11/10 16:18:25;;;;;;;2.90;1.67;;;14.30;99.90;;;;;;5114915;27;20440;-36
2022/11/10 16:20:51;;;;;;;5.63;1.87;;;14.30;99.90;;;;;;5131710;27;20425;-35
2022/11/10 16:23:18;;;;;;;5.00;2.23;;;14.20;99.90;;;;;;5106414;27;20436;-36
2022/11/10 16:25:46;;;;;;;7.77;2.00;;;14.20;99.90;;;;;;5108997;28;20537;-36
2022/11/10 16:28:20;;;;;;;4.10;2.20;;;14.20;99.90;;;;;;5090525;28;20433;-35
2022/11/10 16:30:45;;;;;;;4.30;1.83;;;14.20;99.90;;;;;;5091390;28;20422;-35
2022/11/10 16:33:19;;;;;;;3.27;1.87;;;14.20;99.90;;;;;;5106718;27;20444;-36
2022/11/10 16:35:47;;;;;;;5.60;2.23;;;14.20;99.90;;;;;;5120990;27;20190;-35
2022/11/10 16:38:23;;;;;;;4.03;1.83;;;14.20;99.90;;;;;;5123293;27;20417;-35
2022/11/10 16:41:00;;;;;;;3.77;1.50;;;14.20;99.90;;;;;;5103354;27;20563;-35
2022/11/10 16:43:26;;;;;;;6.60;2.20;;;14.10;99.90;;;;;;5113852;27;20450;-35
2022/11/10 16:45:54;;;;;;;2.20;2.00;;;14.10;99.90;;;;;;5118284;27;20468;-35
2022/11/10 16:48:23;;;;;;;4.57;1.90;;;14.00;99.90;;;;;;5111244;28;20807;-35
2022/11/10 16:50:54;;;;;;;3.60;1.90;;;14.00;99.90;;;;;;5108614;27;20482;-35
2022/11/10 16:53:25;;;;;;;2.80;2.10;;;13.90;99.90;;;;;;5112859;27;20417;-35
2022/11/10 16:55:51;;;;;;;6.10;2.43;;;13.90;99.90;;;;;;5108873;28;20482;-35
2022/11/10 16:58:17;;;;;;;2.90;2.07;;;13.90;99.90;;;;;;5110453;28;20452;-35
2022/11/10 17:00:45;;;;;;;9.20;2.50;;;13.80;99.90;;;;;;5108876;28;20525;-35
2022/11/10 17:03:30;;;;;;;5.90;2.50;;;13.80;99.90;;;;;;5107867;28;20812;-35
2022/11/10 17:05:56;;;;;;;50.73;27.80;;;13.80;99.90;;;;;;5107561;28;20453;-35
2022/11/10 17:08:24;;;;;;;25.23;15.23;;;13.80;99.90;;;;;;5110940;28;20784;-35
2022/11/10 17:10:51;;;;;;;14.60;7.40;;;13.90;99.90;;;;;;5111089;28;20184;-35
2022/11/10 17:13:17;;;;;;;11.60;6.07;;;13.80;99.90;;;;;;5104895;27;20441;-35